Time;durP1;ratioP1;P1;durP2;ratioP2;P2;SDS_P1;SDS_P2;PMS_P1;PMS_P2;Temp;Humidity;BMP_temperature;BMP_pressure;BME280_temperature;BME280_humidity;BME280_pressure;Samples;Min_cycle;Max_cycle;Signal;HPM_P1;HPM_P2
2021/07/17 00:04:48;;;;;;;10.48;7.22;;;21.70;74.20;;;;;;10460429;28;20072;-58
2021/07/17 00:09:48;;;;;;;10.40;8.50;;;21.80;74.30;;;;;;10448266;28;20053;-58
2021/07/17 00:14:49;;;;;;;10.75;8.30;;;21.80;74.30;;;;;;10460258;28;20116;-58
2021/07/17 00:19:50;;;;;;;9.77;8.02;;;21.70;74.20;;;;;;10465550;28;20447;-58
2021/07/17 00:24:50;;;;;;;11.45;8.43;;;21.80;74.20;;;;;;10461041;28;20533;-58
2021/07/17 00:29:51;;;;;;;10.10;8.48;;;21.70;74.00;;;;;;10459670;28;20108;-58
2021/07/17 00:34:52;;;;;;;10.93;7.90;;;21.70;74.10;;;;;;10459606;28;20112;-58
2021/07/17 00:39:53;;;;;;;10.88;8.18;;;21.70;74.00;;;;;;10459336;28;20123;-58
2021/07/17 00:44:53;;;;;;;13.30;8.05;;;21.70;74.10;;;;;;10459098;28;20037;-58
2021/07/17 00:49:54;;;;;;;10.27;7.57;;;21.70;74.10;;;;;;10459091;28;20396;-58
2021/07/17 00:54:57;;;;;;;9.00;8.05;;;21.70;74.10;;;;;;10458687;28;20513;-58
2021/07/17 01:00:00;;;;;;;9.68;6.85;;;21.70;74.10;;;;;;10459021;28;20478;-58
2021/07/17 01:05:01;;;;;;;9.05;7.47;;;21.70;73.90;;;;;;10458334;28;20041;-55
2021/07/17 01:10:05;;;;;;;10.73;8.52;;;21.70;73.90;;;;;;10457475;28;20029;-58
2021/07/17 01:15:07;;;;;;;10.73;7.82;;;21.70;74.00;;;;;;10439817;28;20706;-58
2021/07/17 01:20:13;;;;;;;12.65;8.43;;;21.70;73.90;;;;;;10464540;28;20507;-58
2021/07/17 01:25:21;;;;;;;10.32;7.55;;;21.70;74.00;;;;;;10455982;28;20037;-58
2021/07/17 01:30:27;;;;;;;9.75;7.13;;;21.70;73.90;;;;;;10440294;28;20040;-58
2021/07/17 01:35:27;;;;;;;13.48;7.88;;;21.70;73.90;;;;;;10457355;28;20473;-58
2021/07/17 01:40:28;;;;;;;15.73;8.20;;;21.70;73.90;;;;;;10439286;28;20072;-58
2021/07/17 01:45:38;;;;;;;9.98;7.28;;;21.70;73.90;;;;;;10456160;28;20074;-58
2021/07/17 01:50:41;;;;;;;11.38;7.65;;;21.70;73.90;;;;;;10456798;28;20033;-58
2021/07/17 01:55:42;;;;;;;8.98;6.80;;;21.70;73.70;;;;;;10456400;28;20032;-57
2021/07/17 02:00:43;;;;;;;11.40;8.30;;;21.70;73.70;;;;;;10456509;28;20100;-58
2021/07/17 02:05:43;;;;;;;8.25;7.38;;;21.70;73.70;;;;;;10455908;28;20033;-58
2021/07/17 02:10:44;;;;;;;8.85;7.95;;;21.70;73.60;;;;;;10455886;28;20166;-57
2021/07/17 02:15:52;;;;;;;10.25;8.02;;;21.60;73.70;;;;;;10438337;28;20036;-57
2021/07/17 02:20:53;;;;;;;11.00;7.80;;;21.60;73.70;;;;;;10462097;28;20128;-58
2021/07/17 02:25:55;;;;;;;11.35;7.93;;;21.60;73.60;;;;;;10455487;28;20051;-58
2021/07/17 02:30:56;;;;;;;9.70;7.93;;;21.60;73.60;;;;;;10455334;28;20142;-58
2021/07/17 02:35:57;;;;;;;9.00;6.78;;;21.60;73.60;;;;;;10455673;28;20033;-57
2021/07/17 02:40:58;;;;;;;9.02;7.30;;;21.60;73.60;;;;;;10454939;28;20060;-58
2021/07/17 02:45:58;;;;;;;10.32;7.03;;;21.60;73.50;;;;;;10442179;28;20493;-57
2021/07/17 02:50:59;;;;;;;9.23;7.85;;;21.60;73.50;;;;;;10455145;28;20029;-58
2021/07/17 02:56:00;;;;;;;12.43;7.25;;;21.60;73.50;;;;;;10455039;28;20041;-58
2021/07/17 03:01:01;;;;;;;8.25;6.72;;;21.60;73.50;;;;;;10455063;28;20152;-58
2021/07/17 03:06:01;;;;;;;9.43;7.25;;;21.60;73.50;;;;;;10454821;28;20127;-58
2021/07/17 03:11:02;;;;;;;8.77;7.25;;;21.60;73.60;;;;;;10455011;28;20027;-58
2021/07/17 03:16:03;;;;;;;9.18;7.78;;;21.60;73.60;;;;;;10436847;28;20124;-58
2021/07/17 03:21:04;;;;;;;10.63;7.68;;;21.60;73.60;;;;;;10462784;28;20389;-58
2021/07/17 03:26:05;;;;;;;9.95;7.00;;;21.60;73.50;;;;;;10436350;28;20120;-58
2021/07/17 03:31:05;;;;;;;8.88;7.10;;;21.60;73.40;;;;;;10453514;28;20100;-58
2021/07/17 03:36:06;;;;;;;12.40;7.47;;;21.60;73.50;;;;;;10451219;28;20103;-58
2021/07/17 03:41:06;;;;;;;9.75;7.60;;;21.60;73.50;;;;;;10456671;28;20056;-58
2021/07/17 03:46:07;;;;;;;8.55;6.72;;;21.60;73.40;;;;;;10461407;28;20130;-58
2021/07/17 03:51:08;;;;;;;9.82;7.15;;;21.60;73.40;;;;;;10461374;28;20064;-56
2021/07/17 03:56:08;;;;;;;8.93;6.70;;;21.50;73.30;;;;;;10455485;28;20477;-57
2021/07/17 04:01:09;;;;;;;11.27;7.38;;;21.50;73.30;;;;;;10439957;28;20123;-58
2021/07/17 04:06:10;;;;;;;9.82;7.38;;;21.50;73.30;;;;;;10453195;28;20041;-56
2021/07/17 04:11:10;;;;;;;8.50;7.22;;;21.50;73.30;;;;;;10453242;28;20033;-58
2021/07/17 04:16:11;;;;;;;13.38;8.35;;;21.50;73.30;;;;;;10452276;28;20052;-58
2021/07/17 04:21:12;;;;;;;9.27;6.85;;;21.50;73.30;;;;;;10436347;28;20591;-58
2021/07/17 04:26:13;;;;;;;10.18;6.93;;;21.50;73.20;;;;;;10453077;28;20439;-58
2021/07/17 04:31:13;;;;;;;9.73;6.97;;;21.50;73.20;;;;;;10452948;28;20036;-58
2021/07/17 04:36:14;;;;;;;9.30;6.78;;;21.50;73.20;;;;;;10452999;28;20048;-58
2021/07/17 04:41:15;;;;;;;8.05;6.35;;;21.50;73.20;;;;;;10452955;28;20044;-57
2021/07/17 04:46:15;;;;;;;9.95;6.28;;;21.60;73.20;;;;;;10466511;28;20045;-58
2021/07/17 04:51:16;;;;;;;7.35;6.13;;;21.50;73.20;;;;;;10439784;28;20052;-58
2021/07/17 04:56:17;;;;;;;8.18;6.28;;;21.50;73.20;;;;;;10458580;28;20075;-57
2021/07/17 05:01:18;;;;;;;10.82;7.20;;;21.50;73.20;;;;;;10458277;28;20037;-58
2021/07/17 05:06:19;;;;;;;17.05;7.25;;;21.50;73.30;;;;;;10458377;28;20037;-57
2021/07/17 05:11:20;;;;;;;16.65;7.15;;;21.50;73.50;;;;;;10457759;28;20068;-56
2021/07/17 05:16:20;;;;;;;10.52;6.57;;;21.50;73.80;;;;;;10458101;28;20124;-57
2021/07/17 05:21:21;;;;;;;11.48;6.80;;;21.60;73.80;;;;;;10464351;28;20036;-58
2021/07/17 05:26:22;;;;;;;13.75;6.50;;;21.60;74.20;;;;;;10457614;28;20583;-57
2021/07/17 05:31:22;;;;;;;14.38;6.65;;;21.60;74.10;;;;;;10456825;28;20072;-57
2021/07/17 05:36:23;;;;;;;9.90;7.00;;;21.60;74.20;;;;;;10457199;28;20040;-57
2021/07/17 05:41:24;;;;;;;10.23;6.78;;;21.60;74.20;;;;;;10456667;28;20083;-57
2021/07/17 05:46:24;;;;;;;11.00;7.00;;;21.60;74.00;;;;;;10439271;28;20065;-58
2021/07/17 05:51:25;;;;;;;10.68;6.68;;;21.70;74.00;;;;;;10456391;28;20043;-58
2021/07/17 05:56:26;;;;;;;11.48;6.75;;;21.60;74.10;;;;;;10456698;28;20048;-57
2021/07/17 06:01:26;;;;;;;10.77;6.43;;;21.60;74.10;;;;;;10455695;28;20111;-58
2021/07/17 06:06:28;;;;;;;12.70;6.80;;;21.60;74.20;;;;;;10455417;28;20104;-58
2021/07/17 06:11:28;;;;;;;13.85;7.30;;;21.60;74.10;;;;;;10454494;28;20029;-58
2021/07/17 06:16:29;;;;;;;12.85;5.97;;;21.60;74.20;;;;;;10455164;28;20096;-58
2021/07/17 06:21:30;;;;;;;17.13;7.00;;;21.60;74.30;;;;;;10456261;28;20086;-59
2021/07/17 06:26:31;;;;;;;12.07;6.45;;;21.60;74.40;;;;;;10454908;28;20025;-58
2021/07/17 06:31:32;;;;;;;16.85;7.50;;;21.60;74.40;;;;;;10455167;28;20107;-58
2021/07/17 06:36:33;;;;;;;18.58;7.65;;;21.60;74.50;;;;;;10455389;28;20533;-58
2021/07/17 06:41:33;;;;;;;20.35;6.53;;;21.60;74.40;;;;;;10436902;28;20132;-59
2021/07/17 06:46:34;;;;;;;22.40;7.30;;;21.60;74.80;;;;;;10454223;28;20488;-60
2021/07/17 06:51:35;;;;;;;20.15;7.93;;;21.60;74.90;;;;;;10445068;28;20497;-60
2021/07/17 06:56:36;;;;;;;20.55;8.15;;;21.60;75.20;;;;;;10436375;28;20035;-58
2021/07/17 07:01:36;;;;;;;20.52;7.10;;;21.60;75.30;;;;;;10436233;28;20123;-58
2021/07/17 07:06:37;;;;;;;15.02;6.90;;;21.60;75.30;;;;;;10435110;28;20029;-58
2021/07/17 07:11:39;;;;;;;16.65;6.25;;;21.60;75.50;;;;;;10454867;28;20028;-58
2021/07/17 07:16:40;;;;;;;17.70;7.65;;;21.70;75.70;;;;;;10458720;28;20462;-59
2021/07/17 07:21:40;;;;;;;11.57;5.53;;;21.70;75.70;;;;;;10462799;28;20115;-58
2021/07/17 07:26:42;;;;;;;13.50;6.18;;;21.70;75.30;;;;;;10443401;28;20086;-59
2021/07/17 07:31:42;;;;;;;14.63;7.38;;;21.70;75.30;;;;;;10444939;28;20056;-60
2021/07/17 07:36:43;;;;;;;15.15;6.60;;;21.70;75.10;;;;;;10461250;28;20116;-59
2021/07/17 07:41:44;;;;;;;16.20;7.25;;;21.70;75.10;;;;;;10459499;28;20106;-60
2021/07/17 07:46:45;;;;;;;11.88;6.22;;;21.70;75.00;;;;;;10459523;28;20044;-59
2021/07/17 07:51:46;;;;;;;8.38;5.45;;;21.70;75.00;;;;;;10460436;28;20033;-60
2021/07/17 07:56:47;;;;;;;9.30;5.43;;;21.80;75.00;;;;;;10460321;28;20029;-56
2021/07/17 08:01:47;;;;;;;11.07;5.28;;;21.80;75.00;;;;;;10440497;28;20127;-55
2021/07/17 08:06:48;;;;;;;9.48;5.40;;;21.80;75.50;;;;;;10459031;28;20069;-55
2021/07/17 08:11:49;;;;;;;13.30;5.47;;;21.80;74.90;;;;;;10459186;28;20029;-56
2021/07/17 08:16:50;;;;;;;9.63;5.75;;;21.80;74.80;;;;;;10460052;28;20041;-55
2021/07/17 08:21:50;;;;;;;10.95;5.30;;;21.80;74.90;;;;;;10467420;28;20033;-55
2021/07/17 08:26:51;;;;;;;6.13;5.05;;;21.80;74.80;;;;;;10459475;28;20504;-55
2021/07/17 08:31:52;;;;;;;8.32;5.47;;;21.80;74.70;;;;;;10459725;28;20527;-55
2021/07/17 08:36:52;;;;;;;7.68;4.68;;;21.80;74.70;;;;;;10459414;28;20078;-55
2021/07/17 08:41:54;;;;;;;9.63;5.45;;;21.80;74.60;;;;;;10459125;28;20105;-55
2021/07/17 08:46:57;;;;;;;9.07;4.88;;;21.90;74.60;;;;;;10459022;28;20027;-54
2021/07/17 08:52:00;;;;;;;9.98;4.68;;;21.90;74.50;;;;;;10441606;28;20067;-56
2021/07/17 08:57:01;;;;;;;8.55;4.47;;;21.90;74.40;;;;;;10458606;28;20596;-56
2021/07/17 09:02:02;;;;;;;7.13;4.60;;;21.90;74.40;;;;;;10440376;28;20390;-56
2021/07/17 09:07:03;;;;;;;7.15;4.40;;;21.90;74.30;;;;;;10458731;28;20025;-55
2021/07/17 09:12:26;;;;;;;6.60;4.40;;;21.90;74.30;;;;;;10458155;28;20466;-55
2021/07/17 09:17:30;;;;;;;9.05;4.93;;;21.90;74.20;;;;;;10458051;28;20441;-55
2021/07/17 09:22:36;;;;;;;6.55;4.57;;;21.90;74.30;;;;;;10445562;28;20094;-56
2021/07/17 09:27:37;;;;;;;5.22;4.10;;;21.90;74.10;;;;;;10457369;28;20025;-56
2021/07/17 09:32:38;;;;;;;8.48;5.38;;;22.00;74.20;;;;;;10457383;28;20037;-55
2021/07/17 09:37:39;;;;;;;6.82;4.20;;;21.90;74.00;;;;;;10456406;28;20035;-56
2021/07/17 09:42:44;;;;;;;8.23;4.30;;;21.90;74.00;;;;;;10456728;28;20081;-56
2021/07/17 09:47:45;;;;;;;11.07;4.28;;;22.00;74.00;;;;;;10457015;28;20029;-55
2021/07/17 09:52:46;;;;;;;5.45;3.75;;;22.00;73.90;;;;;;10456494;28;20061;-55
2021/07/17 09:57:47;;;;;;;6.53;4.22;;;22.00;73.90;;;;;;10456210;28;20037;-56
2021/07/17 10:02:48;;;;;;;7.28;3.67;;;22.00;73.90;;;;;;10456093;28;20454;-56
2021/07/17 10:08:06;;;;;;;4.82;3.65;;;22.00;73.90;;;;;;10456147;28;20033;-56
2021/07/17 10:13:07;;;;;;;4.60;3.58;;;22.10;73.90;;;;;;10440655;28;20029;-55
2021/07/17 10:18:23;;;;;;;5.25;3.95;;;22.00;73.80;;;;;;10455991;28;20451;-56
2021/07/17 10:23:24;;;;;;;4.35;3.63;;;22.10;73.80;;;;;;10462963;28;20025;-55
2021/07/17 10:28:25;;;;;;;5.07;3.92;;;22.10;73.70;;;;;;10455236;28;20025;-56
2021/07/17 10:33:28;;;;;;;6.07;4.03;;;22.10;73.70;;;;;;10437706;28;20111;-56
2021/07/17 10:38:32;;;;;;;4.70;3.65;;;22.10;73.70;;;;;;10455065;28;20432;-55
2021/07/17 10:43:33;;;;;;;6.03;3.55;;;22.10;73.60;;;;;;10455330;28;20362;-56
2021/07/17 10:48:34;;;;;;;5.18;4.05;;;22.20;73.70;;;;;;10437372;28;20017;-56
2021/07/17 10:53:45;;;;;;;5.30;3.80;;;22.20;73.70;;;;;;10463614;28;20392;-56
2021/07/17 10:58:45;;;;;;;6.68;3.25;;;22.20;73.50;;;;;;10463343;28;20094;-56
2021/07/17 11:03:46;;;;;;;4.85;3.38;;;22.20;73.60;;;;;;10445590;28;20072;-55
2021/07/17 11:08:47;;;;;;;5.43;3.28;;;22.20;73.60;;;;;;10463114;28;20108;-56
2021/07/17 11:13:48;;;;;;;4.43;3.08;;;22.20;73.50;;;;;;10444653;28;20021;-56
2021/07/17 11:18:49;;;;;;;4.75;3.13;;;22.30;73.50;;;;;;10462422;28;20043;-56
2021/07/17 11:23:50;;;;;;;5.57;3.30;;;22.20;73.40;;;;;;10468914;28;20032;-56
2021/07/17 11:28:56;;;;;;;3.78;2.70;;;22.30;73.40;;;;;;10462272;28;20039;-56
2021/07/17 11:34:20;;;;;;;4.82;2.80;;;22.30;73.40;;;;;;10462011;28;20029;-56
2021/07/17 11:39:25;;;;;;;6.35;3.25;;;22.30;73.30;;;;;;10461620;28;20064;-56
2021/07/17 11:44:35;;;;;;;4.28;3.45;;;22.30;73.30;;;;;;10444085;28;20469;-56
2021/07/17 11:49:54;;;;;;;4.20;3.05;;;22.40;73.30;;;;;;10461586;28;20017;-56
2021/07/17 11:55:07;;;;;;;3.70;2.63;;;22.40;73.30;;;;;;10461193;28;20028;-56
2021/07/17 12:00:17;;;;;;;4.80;3.30;;;22.40;73.30;;;;;;10442730;28;20041;-56
2021/07/17 12:05:18;;;;;;;5.85;3.10;;;22.40;73.20;;;;;;10461124;28;20428;-56
2021/07/17 12:10:24;;;;;;;4.35;3.03;;;22.40;73.20;;;;;;10442718;28;20434;-56
2021/07/17 12:15:38;;;;;;;5.40;3.28;;;22.50;73.20;;;;;;10460366;28;20491;-56
2021/07/17 12:20:42;;;;;;;4.88;3.00;;;22.50;73.20;;;;;;10466031;28;20025;-56
2021/07/17 12:25:49;;;;;;;5.90;2.90;;;22.50;73.10;;;;;;10459461;28;20029;-56
2021/07/17 12:30:56;;;;;;;4.22;2.67;;;22.50;73.10;;;;;;10460014;28;20028;-56
2021/07/17 12:36:22;;;;;;;3.45;2.30;;;22.50;73.10;;;;;;10459481;28;20083;-55
2021/07/17 12:41:31;;;;;;;4.07;2.95;;;22.60;73.10;;;;;;10459380;28;20052;-56
2021/07/17 12:46:34;;;;;;;4.43;2.88;;;22.60;73.00;;;;;;10459449;28;20378;-56
2021/07/17 12:51:53;;;;;;;4.13;2.78;;;22.60;73.00;;;;;;10441594;28;20186;-56
2021/07/17 12:56:59;;;;;;;3.65;2.80;;;22.60;73.00;;;;;;10458742;28;20107;-56
2021/07/17 13:02:12;;;;;;;3.33;2.35;;;22.60;72.90;;;;;;10458316;28;20041;-56
2021/07/17 13:07:13;;;;;;;4.32;2.72;;;22.70;72.90;;;;;;10458652;28;20060;-56
2021/07/17 13:12:15;;;;;;;3.58;2.40;;;22.70;72.90;;;;;;10457109;28;20036;-56
2021/07/17 13:17:21;;;;;;;3.72;2.67;;;22.60;72.80;;;;;;10440342;28;20074;-56
2021/07/17 13:22:21;;;;;;;4.25;2.20;;;22.70;72.90;;;;;;10464520;28;20170;-56
2021/07/17 13:27:27;;;;;;;4.35;2.40;;;22.70;72.80;;;;;;10457539;28;20043;-56
2021/07/17 13:32:43;;;;;;;3.22;2.55;;;22.70;72.80;;;;;;10457881;28;20035;-56
2021/07/17 13:37:57;;;;;;;3.42;2.50;;;22.70;72.70;;;;;;10441014;28;20382;-55
2021/07/17 13:43:04;;;;;;;5.60;2.65;;;22.70;72.80;;;;;;10456783;28;20033;-56
2021/07/17 13:48:06;;;;;;;4.50;3.05;;;22.70;72.70;;;;;;10456608;28;20025;-56
2021/07/17 13:53:12;;;;;;;3.88;2.45;;;22.70;72.70;;;;;;10456392;28;20029;-56
2021/07/17 13:58:24;;;;;;;3.13;2.40;;;22.70;72.70;;;;;;10456386;28;20057;-56
2021/07/17 14:03:37;;;;;;;3.67;3.03;;;22.70;72.70;;;;;;10456058;28;20115;-56
2021/07/17 14:08:39;;;;;;;3.85;1.88;;;22.70;72.70;;;;;;10456069;28;20075;-56
2021/07/17 14:13:41;;;;;;;3.55;2.72;;;22.60;72.70;;;;;;10456037;28;20140;-56
2021/07/17 14:18:45;;;;;;;1.88;1.70;;;22.70;72.70;;;;;;10455709;28;20096;-56
2021/07/17 14:23:46;;;;;;;4.03;2.40;;;22.70;72.70;;;;;;10461603;28;20115;-56
2021/07/17 14:28:47;;;;;;;4.05;2.10;;;22.70;72.60;;;;;;10455524;28;20033;-56
2021/07/17 14:33:47;;;;;;;2.72;1.92;;;22.60;72.50;;;;;;10437507;28;20029;-56
2021/07/17 14:38:48;;;;;;;3.35;2.05;;;22.70;72.50;;;;;;10454970;28;20091;-55
2021/07/17 14:43:49;;;;;;;3.28;2.03;;;22.60;72.50;;;;;;10455185;28;20104;-56
2021/07/17 14:48:49;;;;;;;2.58;2.13;;;22.60;72.40;;;;;;10437085;28;20185;-56
2021/07/17 14:53:53;;;;;;;3.78;1.90;;;22.70;72.50;;;;;;10454747;28;20068;-56
2021/07/17 14:58:54;;;;;;;2.65;2.10;;;22.70;72.50;;;;;;10437752;28;20390;-56
2021/07/17 15:03:55;;;;;;;3.90;2.35;;;22.60;72.50;;;;;;10454715;28;20061;-56
2021/07/17 15:08:55;;;;;;;2.72;1.92;;;22.60;72.40;;;;;;10454812;28;20441;-56
2021/07/17 15:13:56;;;;;;;3.40;2.03;;;22.60;72.50;;;;;;10454769;28;20051;-56
2021/07/17 15:18:57;;;;;;;2.88;2.05;;;22.60;72.40;;;;;;10454555;28;20039;-56
2021/07/17 15:23:58;;;;;;;3.25;1.90;;;22.60;72.40;;;;;;10443410;28;20033;-56
2021/07/17 15:28:59;;;;;;;2.97;2.22;;;22.60;72.40;;;;;;10454067;28;20120;-56
2021/07/17 15:34:00;;;;;;;4.18;1.95;;;22.60;72.40;;;;;;10454252;28;20498;-56
2021/07/17 15:39:00;;;;;;;2.58;1.90;;;22.60;72.40;;;;;;10460444;28;20092;-56
2021/07/17 15:44:06;;;;;;;2.35;1.80;;;22.60;72.40;;;;;;10461564;28;20037;-57
2021/07/17 15:49:08;;;;;;;3.53;1.67;;;22.60;72.40;;;;;;10416024;28;20021;-56
2021/07/17 15:54:09;;;;;;;2.47;1.80;;;22.60;72.50;;;;;;10461095;28;20029;-56
2021/07/17 15:59:10;;;;;;;3.35;1.98;;;22.60;72.40;;;;;;10443153;28;20052;-56
2021/07/17 16:04:11;;;;;;;2.92;1.98;;;22.60;72.50;;;;;;10460628;28;20098;-56
2021/07/17 16:09:12;;;;;;;2.13;1.65;;;22.60;72.50;;;;;;10442869;28;20048;-57
2021/07/17 16:14:13;;;;;;;2.10;1.77;;;22.60;72.40;;;;;;10442930;28;20029;-56
2021/07/17 16:19:14;;;;;;;2.83;1.77;;;22.60;72.50;;;;;;10460592;28;20457;-56
2021/07/17 16:24:15;;;;;;;2.10;1.73;;;22.60;72.50;;;;;;10465506;28;20398;-56
2021/07/17 16:29:16;;;;;;;2.35;1.55;;;22.60;72.50;;;;;;10459997;28;20020;-56
2021/07/17 16:34:17;;;;;;;2.60;2.13;;;22.60;72.50;;;;;;10459967;28;20061;-56
2021/07/17 16:39:19;;;;;;;2.38;1.70;;;22.60;72.40;;;;;;10459416;28;20044;-56
2021/07/17 16:44:20;;;;;;;2.95;1.92;;;22.60;72.50;;;;;;10459709;28;20083;-56
2021/07/17 16:49:20;;;;;;;2.70;1.40;;;22.60;72.50;;;;;;10459493;28;20515;-56
2021/07/17 16:54:21;;;;;;;2.65;1.65;;;22.70;72.50;;;;;;10458979;28;20108;-56
2021/07/17 16:59:23;;;;;;;3.33;2.15;;;22.60;72.40;;;;;;10459190;28;20112;-56
2021/07/17 17:04:24;;;;;;;2.20;1.80;;;22.60;72.50;;;;;;10458736;28;20032;-56
2021/07/17 17:09:25;;;;;;;4.50;2.03;;;22.60;72.40;;;;;;10458250;28;20035;-56
2021/07/17 17:14:26;;;;;;;2.92;1.80;;;22.60;72.40;;;;;;10458213;28;20450;-56
2021/07/17 17:19:27;;;;;;;3.03;1.75;;;22.70;72.50;;;;;;10460225;28;20358;-56
2021/07/17 17:24:27;;;;;;;2.30;1.63;;;22.60;72.30;;;;;;10463347;28;20057;-56
2021/07/17 17:29:29;;;;;;;1.85;1.65;;;22.70;72.10;;;;;;10457756;28;20106;-57
2021/07/17 17:34:30;;;;;;;2.67;1.67;;;22.70;72.30;;;;;;10439632;28;20068;-55
2021/07/17 17:39:30;;;;;;;2.97;1.70;;;22.70;72.20;;;;;;10457139;28;20045;-56
2021/07/17 17:44:31;;;;;;;1.98;1.73;;;22.70;72.20;;;;;;10456911;28;20112;-56
2021/07/17 17:49:38;;;;;;;2.40;1.58;;;22.70;72.10;;;;;;10456082;28;20096;-56
2021/07/17 17:54:42;;;;;;;3.35;1.65;;;22.70;72.00;;;;;;10455585;28;20071;-55
2021/07/17 17:59:48;;;;;;;2.38;1.52;;;22.70;72.10;;;;;;10455984;28;20079;-52
2021/07/17 18:04:49;;;;;;;2.00;1.33;;;22.70;72.20;;;;;;10456244;28;20041;-54
2021/07/17 18:09:50;;;;;;;3.97;2.05;;;22.70;72.20;;;;;;10455876;28;20500;-55
2021/07/17 18:14:51;;;;;;;4.63;2.10;;;22.70;72.10;;;;;;10454970;28;20516;-53
2021/07/17 18:19:51;;;;;;;2.83;1.65;;;22.70;72.00;;;;;;10455402;28;20033;-51
2021/07/17 18:24:52;;;;;;;2.85;1.70;;;22.70;72.40;;;;;;10453066;28;20440;-48
2021/07/17 18:29:53;;;;;;;4.20;1.85;;;22.70;72.30;;;;;;10453806;28;20429;-53
2021/07/17 18:34:54;;;;;;;6.35;1.83;;;22.70;72.30;;;;;;10454309;28;20096;-51
2021/07/17 18:39:54;;;;;;;2.70;1.70;;;22.70;72.50;;;;;;10450907;28;20616;-48
2021/07/17 18:44:55;;;;;;;8.38;1.95;;;22.70;72.50;;;;;;10450754;28;20389;-49
2021/07/17 18:49:56;;;;;;;7.78;2.00;;;22.70;72.20;;;;;;10448325;28;20037;-51
2021/07/17 18:54:57;;;;;;;4.22;2.05;;;22.70;72.50;;;;;;10453599;28;20029;-50
2021/07/17 18:59:57;;;;;;;3.88;1.65;;;22.80;72.50;;;;;;10450989;28;20540;-50
2021/07/17 19:04:58;;;;;;;5.75;2.30;;;22.70;72.50;;;;;;10449274;28;20528;-48
2021/07/17 19:09:59;;;;;;;3.17;1.70;;;22.80;72.60;;;;;;10452840;28;20033;-49
2021/07/17 19:14:59;;;;;;;4.10;1.65;;;22.80;72.50;;;;;;10461090;28;20388;-52
2021/07/17 19:20:01;;;;;;;4.70;2.13;;;22.80;72.60;;;;;;10454551;28;20045;-52
2021/07/17 19:25:03;;;;;;;4.20;1.73;;;22.80;72.60;;;;;;10437743;28;20052;-49
2021/07/17 19:30:10;;;;;;;3.55;1.55;;;22.80;72.50;;;;;;10456511;28;20049;-49
2021/07/17 19:35:13;;;;;;;2.20;1.52;;;22.90;72.60;;;;;;10460797;28;20037;-52
2021/07/17 19:40:17;;;;;;;3.78;1.73;;;22.80;72.50;;;;;;10460016;28;20045;-48
2021/07/17 19:45:18;;;;;;;3.60;1.85;;;22.80;72.60;;;;;;10453107;28;20388;-50
2021/07/17 19:50:21;;;;;;;4.10;1.35;;;22.80;72.40;;;;;;10457083;28;20106;-49
2021/07/17 19:55:22;;;;;;;3.78;1.67;;;22.80;72.40;;;;;;10440091;28;20120;-48
2021/07/17 20:00:23;;;;;;;3.63;1.80;;;22.80;72.30;;;;;;10460432;28;20029;-49
2021/07/17 20:05:24;;;;;;;3.22;1.55;;;22.80;72.10;;;;;;10459561;28;20031;-46
2021/07/17 20:10:25;;;;;;;2.85;1.58;;;22.90;72.20;;;;;;10460434;28;20454;-48
2021/07/17 20:15:26;;;;;;;3.92;1.90;;;22.80;72.10;;;;;;10460724;28;20047;-49
2021/07/17 20:20:27;;;;;;;2.75;1.55;;;22.90;72.10;;;;;;10466847;28;20454;-47
2021/07/17 20:25:28;;;;;;;2.10;1.52;;;22.90;72.10;;;;;;10441981;28;20087;-47
2021/07/17 20:30:28;;;;;;;3.92;1.92;;;22.80;72.00;;;;;;10460203;28;20074;-45
2021/07/17 20:35:29;;;;;;;4.30;2.05;;;22.80;71.90;;;;;;10460158;28;20457;-47
2021/07/17 20:40:30;;;;;;;3.72;2.20;;;22.80;71.90;;;;;;10459505;28;20080;-47
2021/07/17 20:45:36;;;;;;;2.60;1.80;;;22.80;71.90;;;;;;10458902;28;20044;-47
2021/07/17 20:50:36;;;;;;;3.20;1.42;;;22.80;71.80;;;;;;10459408;28;20033;-47
2021/07/17 20:55:37;;;;;;;2.55;1.95;;;22.80;71.80;;;;;;10458943;28;20393;-49
2021/07/17 21:00:38;;;;;;;3.42;1.60;;;22.80;71.70;;;;;;10458869;28;20539;-48
2021/07/17 21:05:38;;;;;;;3.72;1.60;;;22.80;71.70;;;;;;10458448;28;20075;-48
2021/07/17 21:10:39;;;;;;;3.17;2.03;;;22.80;71.60;;;;;;10458695;28;20025;-50
2021/07/17 21:15:40;;;;;;;2.38;1.50;;;22.80;71.60;;;;;;10458481;28;20056;-49
2021/07/17 21:20:41;;;;;;;3.40;1.88;;;22.70;71.60;;;;;;10457171;28;20106;-48
2021/07/17 21:25:41;;;;;;;2.85;2.50;;;22.70;71.60;;;;;;10457638;28;20162;-49
2021/07/17 21:30:42;;;;;;;3.00;2.13;;;22.80;71.60;;;;;;10457815;28;20392;-46
2021/07/17 21:35:43;;;;;;;2.15;1.48;;;22.80;71.60;;;;;;10456797;28;20481;-46
2021/07/17 21:40:43;;;;;;;2.15;1.42;;;22.80;71.70;;;;;;10457173;28;20394;-46
2021/07/17 21:45:45;;;;;;;2.72;1.50;;;22.80;71.70;;;;;;10457115;28;20037;-45
2021/07/17 21:50:46;;;;;;;2.47;1.92;;;22.70;71.50;;;;;;10439373;28;20155;-48
2021/07/17 21:55:47;;;;;;;2.55;1.40;;;22.80;71.50;;;;;;10456668;28;20470;-49
2021/07/17 22:00:56;;;;;;;2.92;1.80;;;22.80;71.50;;;;;;10456609;28;20029;-49
2021/07/17 22:05:56;;;;;;;2.17;1.77;;;22.80;71.60;;;;;;10438500;28;20044;-49
2021/07/17 22:11:06;;;;;;;3.42;2.10;;;22.70;72.10;;;;;;10445571;28;20052;-50
2021/07/17 22:16:08;;;;;;;2.83;1.70;;;22.70;71.50;;;;;;10455964;28;20044;-51
2021/07/17 22:21:11;;;;;;;3.15;1.58;;;22.70;71.50;;;;;;10450906;28;20508;-46
2021/07/17 22:26:12;;;;;;;2.08;1.50;;;22.70;71.50;;;;;;10438064;28;20037;-47
2021/07/17 22:31:13;;;;;;;2.58;1.80;;;22.70;71.50;;;;;;10455614;28;20041;-48
2021/07/17 22:36:14;;;;;;;2.50;1.67;;;22.70;71.50;;;;;;10455413;28;20147;-47
2021/07/17 22:41:15;;;;;;;2.85;1.65;;;22.70;71.50;;;;;;10455301;28;20053;-45
2021/07/17 22:46:20;;;;;;;3.63;2.05;;;22.70;71.50;;;;;;10462994;28;20108;-46
2021/07/17 22:51:21;;;;;;;2.65;2.03;;;22.70;71.40;;;;;;10469006;28;20041;-48
2021/07/17 22:56:22;;;;;;;2.47;1.80;;;22.70;71.40;;;;;;10469052;28;20025;-51
2021/07/17 23:01:24;;;;;;;2.42;1.70;;;22.70;71.40;;;;;;10468788;28;20037;-48
2021/07/17 23:06:25;;;;;;;2.05;1.58;;;22.70;71.40;;;;;;10468542;28;20116;-47
2021/07/17 23:11:26;;;;;;;3.08;1.92;;;22.70;71.30;;;;;;10468790;28;20129;-47
2021/07/17 23:16:26;;;;;;;3.85;2.03;;;22.70;71.30;;;;;;10468746;28;20071;-46
2021/07/17 23:21:27;;;;;;;2.20;1.70;;;22.70;71.30;;;;;;10476274;28;20040;-46
2021/07/17 23:26:27;;;;;;;3.30;2.05;;;22.70;71.30;;;;;;10468393;28;20037;-47
2021/07/17 23:31:28;;;;;;;3.40;2.00;;;22.60;71.20;;;;;;10468246;28;20057;-48
2021/07/17 23:36:29;;;;;;;2.42;1.92;;;22.70;71.30;;;;;;10468619;28;20033;-50
2021/07/17 23:41:29;;;;;;;2.83;2.05;;;22.70;71.30;;;;;;10468272;28;20057;-46
2021/07/17 23:46:30;;;;;;;3.75;2.30;;;22.70;71.30;;;;;;10467979;28;20102;-47
2021/07/17 23:51:31;;;;;;;2.60;2.17;;;22.70;71.30;;;;;;10467720;28;20397;-49
2021/07/17 23:56:32;;;;;;;3.33;2.10;;;22.70;71.30;;;;;;10447375;28;20063;-46
